createdAt,value
2022-12-19T00:01:38.029Z,25.25
2022-12-19T00:04:09.125Z,23.77
2022-12-19T00:06:37.831Z,26.48
2022-12-19T00:09:06.083Z,25.58
2022-12-19T00:11:33.885Z,24.58
2022-12-19T00:14:01.036Z,26.33
2022-12-19T00:16:29.895Z,23.25
2022-12-19T00:18:59.748Z,23.90
2022-12-19T00:21:34.695Z,24.15
2022-12-19T00:24:09.848Z,25.73
2022-12-19T00:26:49.818Z,24.20
2022-12-19T00:29:17.252Z,23.98
2022-12-19T00:31:45.697Z,25.40
2022-12-19T00:34:15.107Z,23.75
2022-12-19T00:36:42.523Z,25.00
2022-12-19T00:39:10.559Z,24.02
2022-12-19T00:41:41.599Z,25.50
2022-12-19T00:44:16.601Z,23.27
2022-12-19T00:46:50.259Z,23.67
2022-12-19T00:49:21.025Z,25.02
2022-12-19T00:51:48.171Z,22.15
2022-12-19T00:54:15.432Z,25.17
2022-12-19T00:56:43.150Z,26.58
2022-12-19T00:59:10.676Z,26.70
2022-12-19T01:01:40.425Z,25.77
2022-12-19T01:04:28.093Z,23.65
2022-12-19T01:07:02.715Z,22.92
2022-12-19T01:12:18.263Z,24.48
2022-12-19T01:14:45.582Z,23.95
2022-12-19T01:17:13.145Z,22.42
2022-12-19T01:19:43.961Z,23.80
2022-12-19T01:22:13.506Z,22.23
2022-12-19T01:24:41.333Z,24.10
2022-12-19T01:27:08.771Z,25.37
2022-12-19T01:29:38.892Z,23.52
2022-12-19T01:32:20.729Z,21.80
2022-12-19T01:34:48.177Z,24.92
2022-12-19T01:37:18.432Z,23.50
2022-12-19T01:39:46.126Z,23.80
2022-12-19T01:42:19.597Z,21.37
2022-12-19T01:45:04.830Z,21.75
2022-12-19T01:47:33.751Z,21.60
2022-12-19T01:50:01.957Z,19.05
2022-12-19T01:52:30.168Z,22.25
2022-12-19T01:54:57.661Z,24.40
2022-12-19T01:57:26.073Z,22.02
2022-12-19T01:59:56.768Z,21.73
2022-12-19T02:02:34.175Z,24.17
2022-12-19T02:05:01.920Z,18.05
2022-12-19T02:07:29.104Z,21.73
2022-12-19T02:09:58.685Z,22.15
2022-12-19T02:12:26.886Z,17.92
2022-12-19T02:14:56.001Z,17.33
2022-12-19T02:17:52.811Z,22.70
2022-12-19T02:20:51.537Z,20.85
2022-12-19T02:23:43.166Z,18.90
2022-12-19T02:26:22.686Z,15.80
2022-12-19T02:29:12.300Z,22.40
2022-12-19T02:32:01.333Z,19.50
2022-12-19T02:34:41.323Z,21.40
2022-12-19T02:37:21.373Z,19.08
2022-12-19T02:40:10.943Z,21.75
2022-12-19T02:42:40.088Z,21.27
2022-12-19T02:45:10.266Z,21.77
2022-12-19T02:47:39.376Z,20.40
2022-12-19T02:50:07.667Z,21.35
2022-12-19T02:52:35.090Z,25.00
2022-12-19T02:55:09.504Z,21.15
2022-12-19T02:57:43.237Z,21.48
2022-12-19T03:00:14.686Z,17.20
2022-12-19T03:03:18.189Z,20.80
2022-12-19T03:05:54.986Z,23.02
2022-12-19T03:09:02.439Z,22.13
2022-12-19T03:11:35.458Z,22.05
2022-12-19T03:14:07.393Z,25.35
2022-12-19T03:16:36.674Z,21.15
2022-12-19T03:19:09.874Z,22.52
2022-12-19T03:21:43.614Z,21.48
2022-12-19T03:24:12.302Z,24.33
2022-12-19T03:26:47.162Z,22.90
2022-12-19T03:29:23.002Z,21.80
2022-12-19T03:31:51.727Z,22.42
2022-12-19T03:34:23.610Z,20.12
2022-12-19T03:36:55.562Z,23.58
2022-12-19T03:39:23.667Z,22.10
2022-12-19T03:42:10.504Z,23.85
2022-12-19T03:44:40.515Z,23.35
2022-12-19T03:47:28.306Z,22.05
2022-12-19T03:49:55.783Z,23.70
2022-12-19T03:52:30.030Z,25.02
2022-12-19T03:55:16.861Z,20.83
2022-12-19T03:58:20.999Z,22.05
2022-12-19T04:00:48.809Z,22.02
2022-12-19T04:03:17.597Z,22.70
2022-12-19T04:05:45.992Z,23.27
2022-12-19T04:08:13.466Z,20.92
2022-12-19T04:11:01.268Z,22.23
2022-12-19T04:13:34.685Z,22.48
2022-12-19T04:16:08.923Z,19.45
2022-12-19T04:18:36.635Z,24.12
2022-12-19T04:21:23.942Z,22.00
2022-12-19T04:23:55.326Z,24.30
2022-12-19T04:26:23.635Z,24.50
2022-12-19T04:28:55.551Z,22.02
2022-12-19T04:31:23.601Z,22.08
2022-12-19T04:33:50.763Z,24.35
2022-12-19T04:36:17.872Z,23.20
2022-12-19T04:38:45.601Z,19.42
2022-12-19T04:41:12.644Z,21.58
2022-12-19T04:43:39.696Z,20.27
2022-12-19T04:46:07.175Z,19.75
2022-12-19T04:48:37.613Z,20.00
2022-12-19T04:51:04.712Z,19.80
2022-12-19T04:53:32.639Z,21.30
2022-12-19T04:56:04.660Z,19.62
2022-12-19T04:58:32.441Z,18.85
2022-12-19T05:01:04.524Z,21.08
2022-12-19T05:03:33.143Z,21.33
2022-12-19T05:06:09.976Z,23.62
2022-12-19T05:08:38.993Z,21.30
2022-12-19T05:11:07.140Z,23.30
2022-12-19T05:13:34.321Z,21.23
2022-12-19T05:16:06.649Z,22.02
2022-12-19T05:18:34.353Z,23.10
2022-12-19T05:21:01.657Z,21.02
2022-12-19T05:23:28.891Z,23.15
2022-12-19T05:25:59.750Z,21.77
2022-12-19T05:28:27.408Z,22.05
2022-12-19T05:31:15.567Z,19.37
2022-12-19T05:33:43.177Z,21.15
2022-12-19T05:36:11.560Z,22.20
2022-12-19T05:38:38.698Z,22.92
2022-12-19T05:41:11.996Z,21.55
2022-12-19T05:43:42.679Z,21.12
2022-12-19T05:46:10.078Z,19.62
2022-12-19T05:48:38.250Z,21.23
2022-12-19T05:51:05.413Z,21.65
2022-12-19T05:53:35.157Z,23.65
2022-12-19T05:56:14.059Z,23.40
2022-12-19T05:58:42.084Z,22.05
2022-12-19T06:01:11.667Z,21.45
2022-12-19T06:03:39.127Z,22.90
2022-12-19T06:06:09.555Z,25.02
2022-12-19T06:08:36.847Z,25.88
2022-12-19T06:11:05.869Z,25.25
2022-12-19T06:13:33.703Z,22.90
2022-12-19T06:16:02.557Z,25.05
2022-12-19T06:18:30.992Z,25.15
2022-12-19T06:21:06.517Z,23.87
2022-12-19T06:23:35.717Z,25.65
2022-12-19T06:26:05.070Z,25.75
2022-12-19T06:28:33.011Z,23.15
2022-12-19T06:31:02.291Z,22.80
2022-12-19T06:33:30.154Z,26.12
2022-12-19T06:36:02.233Z,26.65
2022-12-19T06:38:30.244Z,24.40
2022-12-19T06:41:16.055Z,24.00
2022-12-19T06:43:43.466Z,24.35
2022-12-19T06:46:10.900Z,29.45
2022-12-19T06:48:38.159Z,22.05
2022-12-19T06:51:05.719Z,27.42
2022-12-19T06:53:32.809Z,26.87
2022-12-19T06:56:00.240Z,24.00
2022-12-19T06:58:27.608Z,23.77
2022-12-19T07:00:54.688Z,23.33
2022-12-19T07:03:29.861Z,29.12
2022-12-19T07:05:57.302Z,21.65
2022-12-19T07:08:24.371Z,20.35
2022-12-19T07:10:54.239Z,23.85
2022-12-19T07:13:21.797Z,29.63
2022-12-19T07:15:49.753Z,27.40
2022-12-19T07:18:16.895Z,26.60
2022-12-19T07:20:45.368Z,28.10
2022-12-19T07:23:15.029Z,25.23
2022-12-19T07:25:42.240Z,25.10
2022-12-19T07:28:09.702Z,26.98
2022-12-19T07:30:36.868Z,26.67
2022-12-19T07:33:04.020Z,30.50
2022-12-19T07:35:31.405Z,24.45
2022-12-19T07:38:02.787Z,24.27
2022-12-19T07:40:30.251Z,23.15
2022-12-19T07:43:01.534Z,21.12
2022-12-19T07:45:29.076Z,26.12
2022-12-19T07:47:59.270Z,26.33
2022-12-19T07:50:26.654Z,27.83
2022-12-19T07:52:53.734Z,27.13
2022-12-19T07:55:20.859Z,27.95
2022-12-19T07:57:48.235Z,30.37
2022-12-19T08:00:15.894Z,22.20
2022-12-19T08:02:43.927Z,22.15
2022-12-19T08:05:11.970Z,22.65
2022-12-19T08:07:39.155Z,22.08
2022-12-19T08:10:07.030Z,22.42
2022-12-19T08:12:34.338Z,20.45
2022-12-19T08:15:01.419Z,17.58
2022-12-19T08:17:28.901Z,19.27
2022-12-19T08:19:56.112Z,17.67
2022-12-19T08:22:23.399Z,18.58
2022-12-19T08:24:50.809Z,18.73
2022-12-19T08:27:17.919Z,19.92
2022-12-19T08:29:45.108Z,18.20
2022-12-19T08:32:18.681Z,19.65
2022-12-19T08:34:48.265Z,15.27
2022-12-19T08:37:15.624Z,18.37
2022-12-19T08:39:42.719Z,15.48
2022-12-19T08:42:09.841Z,14.63
2022-12-19T08:44:37.232Z,13.45
2022-12-19T08:47:04.718Z,11.27
2022-12-19T08:49:31.873Z,10.55
2022-12-19T08:51:59.308Z,12.18
2022-12-19T08:54:27.149Z,13.30
2022-12-19T08:56:54.405Z,12.32
2022-12-19T08:59:30.792Z,13.40
2022-12-19T09:02:00.749Z,15.25
2022-12-19T09:05:46.500Z,10.30
2022-12-19T09:07:18.984Z,11.85
2022-12-19T09:09:46.451Z,11.18
2022-12-19T09:12:14.761Z,12.40
2022-12-19T09:14:41.785Z,12.63
2022-12-19T09:17:09.248Z,11.05
2022-12-19T09:19:36.377Z,12.10
2022-12-19T09:22:03.631Z,11.15
2022-12-19T09:24:30.992Z,9.00
2022-12-19T09:26:58.067Z,9.98
2022-12-19T09:29:25.393Z,12.68
2022-12-19T09:31:56.115Z,9.77
2022-12-19T09:34:36.786Z,11.63
2022-12-19T09:37:10.357Z,13.10
2022-12-19T09:39:46.215Z,11.02
2022-12-19T09:42:30.565Z,10.88
2022-12-19T09:45:14.473Z,9.93
2022-12-19T09:47:47.567Z,10.40
2022-12-19T09:50:55.556Z,12.80
2022-12-19T09:53:59.820Z,10.05
2022-12-19T09:56:29.912Z,11.90
2022-12-19T09:59:45.973Z,10.50
2022-12-19T10:02:23.295Z,9.77
2022-12-19T10:05:05.970Z,13.25
2022-12-19T10:08:07.204Z,14.57
2022-12-19T10:12:40.313Z,14.50
2022-12-19T10:13:35.027Z,10.73
2022-12-19T10:16:27.451Z,12.27
2022-12-19T10:19:00.840Z,10.88
2022-12-19T10:22:17.883Z,10.55
2022-12-19T10:25:09.290Z,10.45
2022-12-19T10:28:15.928Z,10.07
2022-12-19T10:30:48.036Z,11.18
2022-12-19T10:33:21.246Z,10.23
2022-12-19T10:35:54.293Z,10.48
2022-12-19T10:38:49.283Z,13.80
2022-12-19T10:41:25.001Z,8.43
2022-12-19T10:44:07.247Z,11.27
2022-12-19T10:46:41.146Z,10.48
2022-12-19T10:49:20.141Z,14.43
2022-12-19T10:52:03.459Z,11.63
2022-12-19T10:54:41.134Z,11.20
2022-12-19T10:57:18.663Z,13.80
2022-12-19T10:59:59.036Z,11.90
2022-12-19T11:02:38.426Z,12.50
2022-12-19T11:05:21.509Z,12.10
2022-12-19T11:08:14.601Z,12.10
2022-12-19T11:12:56.834Z,10.02
2022-12-19T11:19:08.201Z,9.25
2022-12-19T11:22:59.583Z,11.70
2022-12-19T11:29:33.927Z,9.57
2022-12-19T11:29:44.094Z,12.27
2022-12-19T11:30:39.206Z,10.40
2022-12-19T11:30:41.837Z,12.45
2022-12-19T11:34:21.266Z,9.27
2022-12-19T11:36:53.119Z,11.23
2022-12-19T11:39:32.106Z,12.25
2022-12-19T11:42:02.127Z,12.45
2022-12-19T11:44:35.077Z,11.98
2022-12-19T11:47:18.214Z,13.30
2022-12-19T11:49:53.832Z,9.57
2022-12-19T11:53:02.773Z,11.43
2022-12-19T11:55:38.232Z,11.10
2022-12-19T11:58:06.079Z,9.40
2022-12-19T12:00:34.840Z,12.57
2022-12-19T12:03:31.589Z,11.32
2022-12-19T12:05:58.764Z,9.75
2022-12-19T12:10:09.385Z,12.43
2022-12-19T12:17:02.648Z,10.55
2022-12-19T12:27:35.941Z,8.70
2022-12-19T12:27:49.062Z,10.10
2022-12-19T12:31:20.142Z,9.70
2022-12-19T12:31:38.593Z,10.98
2022-12-19T12:31:50.264Z,11.10
2022-12-19T12:35:40.505Z,9.57
2022-12-19T12:35:47.064Z,11.12
2022-12-19T12:38:14.796Z,12.77
2022-12-19T12:40:40.648Z,8.43
2022-12-19T12:43:26.335Z,10.52
2022-12-19T12:45:53.929Z,10.85
2022-12-19T12:48:25.507Z,10.30
2022-12-19T12:50:55.352Z,12.63
2022-12-19T12:53:28.756Z,11.98
2022-12-19T12:55:57.161Z,13.65
2022-12-19T12:58:42.828Z,10.95
2022-12-19T13:01:12.714Z,11.10
2022-12-19T13:03:42.298Z,10.73
2022-12-19T13:06:36.535Z,13.98
2022-12-19T13:09:09.161Z,13.77
2022-12-19T13:11:59.523Z,13.82
2022-12-19T13:14:35.767Z,10.60
2022-12-19T13:17:07.266Z,10.60
2022-12-19T13:19:58.924Z,10.27
2022-12-19T13:22:28.950Z,12.15
2022-12-19T13:24:57.673Z,12.45
2022-12-19T13:27:36.079Z,13.35
2022-12-19T13:30:14.218Z,9.95
2022-12-19T13:32:41.244Z,10.80
2022-12-19T13:35:54.326Z,10.93
2022-12-19T13:39:49.871Z,15.57
2022-12-19T13:41:45.614Z,9.18
2022-12-19T13:44:12.988Z,11.25
2022-12-19T13:46:44.674Z,11.85
2022-12-19T13:49:19.406Z,13.65
2022-12-19T13:51:47.936Z,10.05
2022-12-19T13:54:45.429Z,12.32
2022-12-19T13:57:25.165Z,12.35
2022-12-19T14:00:00.464Z,14.05
2022-12-19T14:02:44.775Z,11.35
2022-12-19T14:06:14.293Z,10.50
2022-12-19T14:08:23.598Z,11.52
2022-12-19T14:11:35.283Z,11.15
2022-12-19T14:14:10.729Z,14.02
2022-12-19T14:16:44.686Z,14.13
2022-12-19T14:19:18.414Z,8.60
2022-12-19T14:22:04.563Z,13.30
2022-12-19T14:24:33.056Z,13.35
2022-12-19T14:28:18.618Z,10.00
2022-12-19T14:30:31.006Z,13.15
2022-12-19T14:33:46.388Z,12.55
2022-12-19T14:36:09.796Z,14.95
2022-12-19T14:39:24.147Z,12.27
2022-12-19T14:41:46.969Z,11.70
2022-12-19T14:51:51.661Z,11.00
2022-12-19T14:54:13.937Z,13.30
2022-12-19T14:54:17.042Z,10.80
2022-12-19T14:54:40.481Z,14.50
2022-12-19T14:56:11.484Z,13.52
2022-12-19T14:58:53.361Z,15.32
2022-12-19T15:01:24.960Z,11.52
2022-12-19T15:04:53.510Z,11.52
2022-12-19T15:07:09.518Z,12.23
2022-12-19T15:11:05.356Z,13.80
2022-12-19T15:14:46.967Z,12.37
2022-12-19T15:15:56.354Z,12.52
2022-12-19T15:18:33.022Z,15.02
2022-12-19T15:21:02.677Z,12.37
2022-12-19T15:23:30.444Z,13.30
2022-12-19T15:26:06.192Z,14.23
2022-12-19T15:28:47.780Z,14.75
2022-12-19T15:31:17.713Z,12.88
2022-12-19T15:34:14.354Z,13.62
2022-12-19T15:36:32.921Z,15.02
2022-12-19T15:39:00.309Z,16.30
2022-12-19T15:41:27.602Z,16.90
2022-12-19T15:44:04.095Z,16.00
2022-12-19T15:46:32.694Z,14.18
2022-12-19T15:48:59.840Z,13.88
2022-12-19T15:51:26.939Z,11.75
2022-12-19T15:54:15.541Z,15.32
2022-12-19T15:56:47.385Z,13.20
2022-12-19T15:59:47.674Z,14.35
2022-12-19T16:02:21.730Z,13.40
2022-12-19T16:04:50.430Z,14.63
2022-12-19T16:07:22.852Z,13.38
2022-12-19T16:09:50.272Z,14.15
2022-12-19T16:12:20.353Z,10.85
2022-12-19T16:14:56.702Z,11.77
2022-12-19T16:17:25.458Z,14.00
2022-12-19T16:19:52.611Z,14.95
2022-12-19T16:22:24.455Z,13.55
2022-12-19T16:24:52.785Z,14.57
2022-12-19T16:27:30.260Z,17.33
2022-12-19T16:30:02.845Z,13.93
2022-12-19T16:32:29.935Z,13.65
2022-12-19T16:34:57.285Z,14.63
2022-12-19T16:37:31.797Z,13.90
2022-12-19T16:39:59.769Z,16.17
2022-12-19T16:42:28.275Z,10.40
2022-12-19T16:44:55.489Z,12.88
2022-12-19T16:47:22.913Z,10.68
2022-12-19T16:49:50.076Z,16.37
2022-12-19T16:52:17.150Z,13.13
2022-12-19T16:54:44.539Z,12.57
2022-12-19T16:57:19.996Z,13.62
2022-12-19T16:59:48.010Z,17.35
2022-12-19T17:02:34.094Z,13.73
2022-12-19T17:05:01.552Z,12.40
2022-12-19T17:07:29.185Z,12.80
2022-12-19T17:09:56.235Z,12.98
2022-12-19T17:12:25.137Z,11.50
2022-12-19T17:14:52.220Z,15.38
2022-12-19T17:17:19.275Z,14.50
2022-12-19T17:19:46.733Z,10.88
2022-12-19T17:22:15.431Z,17.37
2022-12-19T17:24:44.045Z,14.90
2022-12-19T17:27:11.348Z,12.77
2022-12-19T17:29:38.400Z,12.85
2022-12-19T17:32:08.993Z,14.23
2022-12-19T17:34:36.411Z,15.15
2022-12-19T17:37:05.228Z,14.00
2022-12-19T17:39:34.527Z,13.82
2022-12-19T17:42:10.950Z,17.90
2022-12-19T17:44:37.981Z,13.65
2022-12-19T17:47:05.495Z,13.45
2022-12-19T17:49:32.862Z,12.82
2022-12-19T17:52:00.251Z,15.48
2022-12-19T17:54:27.617Z,16.65
2022-12-19T17:56:55.244Z,14.82
2022-12-19T17:59:22.248Z,12.57
2022-12-19T18:01:49.950Z,16.15
2022-12-19T18:04:18.943Z,12.95
2022-12-19T18:06:46.471Z,14.32
2022-12-19T18:09:24.185Z,15.85
2022-12-19T18:11:52.863Z,12.13
2022-12-19T18:14:20.545Z,14.55
2022-12-19T18:16:48.158Z,12.45
2022-12-19T18:19:23.559Z,13.32
2022-12-19T18:21:50.658Z,16.00
2022-12-19T18:24:18.054Z,14.32
2022-12-19T18:26:45.245Z,11.15
2022-12-19T18:29:12.844Z,15.75
2022-12-19T18:31:48.187Z,15.02
2022-12-19T18:34:23.047Z,15.07
2022-12-19T18:36:51.257Z,14.05
2022-12-19T18:39:21.392Z,17.00
2022-12-19T18:41:50.031Z,13.95
2022-12-19T18:44:17.711Z,15.70
2022-12-19T18:46:45.468Z,14.20
2022-12-19T18:49:16.908Z,9.00
2022-12-19T18:51:44.968Z,13.75
2022-12-19T18:54:13.666Z,11.55
2022-12-19T18:56:40.769Z,12.68
2022-12-19T18:59:09.461Z,11.65
2022-12-19T19:01:40.157Z,16.05
2022-12-19T19:04:08.888Z,14.65
2022-12-19T19:06:38.152Z,18.12
2022-12-19T19:09:13.135Z,14.65
2022-12-19T19:11:42.418Z,14.35
2022-12-19T19:14:09.668Z,9.25
2022-12-19T19:16:40.164Z,14.55
2022-12-19T19:19:10.892Z,10.57
2022-12-19T19:21:38.886Z,14.45
2022-12-19T19:24:09.252Z,13.40
2022-12-19T19:26:36.833Z,11.43
2022-12-19T19:29:04.166Z,14.80
2022-12-19T19:31:34.457Z,12.88
2022-12-19T19:34:10.009Z,11.88
2022-12-19T19:36:40.397Z,16.55
2022-12-19T19:39:07.753Z,17.42
2022-12-19T19:41:34.773Z,11.85
2022-12-19T19:44:01.920Z,11.95
2022-12-19T19:46:29.456Z,12.70
2022-12-19T19:48:57.143Z,16.95
2022-12-19T19:51:24.771Z,14.45
2022-12-19T19:53:52.156Z,15.18
2022-12-19T19:56:19.462Z,17.42
2022-12-19T19:58:46.577Z,17.40
2022-12-19T20:01:14.397Z,15.68
2022-12-19T20:03:43.159Z,13.07
2022-12-19T20:06:11.030Z,15.63
2022-12-19T20:08:40.222Z,15.90
2022-12-19T20:11:08.735Z,16.17
2022-12-19T20:13:36.116Z,15.35
2022-12-19T20:16:23.474Z,16.05
2022-12-19T20:18:52.447Z,16.83
2022-12-19T20:21:20.088Z,14.80
2022-12-19T20:23:47.343Z,14.30
2022-12-19T20:26:16.395Z,18.17
2022-12-19T20:28:49.250Z,13.50
2022-12-19T20:31:19.626Z,14.98
2022-12-19T20:33:48.281Z,18.40
2022-12-19T20:36:16.668Z,16.87
2022-12-19T20:38:44.182Z,18.70
2022-12-19T20:41:11.180Z,19.87
2022-12-19T20:43:38.653Z,17.17
2022-12-19T20:46:08.592Z,18.60
2022-12-19T20:48:36.490Z,15.57
2022-12-19T20:51:05.178Z,19.87
2022-12-19T20:53:34.815Z,15.50
2022-12-19T20:56:03.733Z,17.17
2022-12-19T20:58:33.115Z,16.65
2022-12-19T21:01:09.355Z,16.75
2022-12-19T21:03:37.853Z,14.60
2022-12-19T21:06:05.867Z,16.35
2022-12-19T21:08:33.529Z,17.23
2022-12-19T21:11:01.884Z,19.52
2022-12-19T21:13:29.572Z,20.10
2022-12-19T21:15:58.734Z,17.23
2022-12-19T21:18:26.904Z,18.10
2022-12-19T21:20:54.835Z,16.50
2022-12-19T21:23:23.138Z,15.52
2022-12-19T21:25:50.233Z,15.00
2022-12-19T21:28:17.998Z,15.57
2022-12-19T21:30:45.308Z,17.17
2022-12-19T21:33:12.363Z,15.15
2022-12-19T21:35:39.752Z,16.83
2022-12-19T21:38:06.814Z,16.48
2022-12-19T21:40:36.073Z,17.48
2022-12-19T21:43:11.176Z,15.63
2022-12-19T21:45:39.190Z,14.73
2022-12-19T21:48:06.958Z,18.23
2022-12-19T21:50:34.106Z,16.30
2022-12-19T21:53:01.246Z,19.65
2022-12-19T21:55:28.589Z,16.37
2022-12-19T21:57:55.808Z,16.12
2022-12-19T22:00:23.068Z,15.52
2022-12-19T22:03:12.760Z,19.33
2022-12-19T22:05:38.250Z,16.08
2022-12-19T22:08:05.653Z,19.75
2022-12-19T22:10:32.763Z,18.05
2022-12-19T22:12:59.832Z,15.73
2022-12-19T22:15:27.174Z,20.67
2022-12-19T22:17:54.252Z,18.48
2022-12-19T22:20:21.301Z,15.20
2022-12-19T22:22:48.655Z,16.75
2022-12-19T22:25:15.778Z,14.80
2022-12-19T22:27:42.845Z,15.88
2022-12-19T22:30:11.349Z,13.82
2022-12-19T22:32:38.619Z,12.75
2022-12-19T22:35:06.239Z,16.75
2022-12-19T22:37:33.642Z,18.50
2022-12-19T22:40:04.071Z,15.93
2022-12-19T22:42:31.183Z,19.45
2022-12-19T22:44:59.318Z,14.07
2022-12-19T22:47:26.375Z,14.38
2022-12-19T22:49:53.425Z,15.15
2022-12-19T22:52:20.880Z,19.67
2022-12-19T22:54:48.077Z,13.30
2022-12-19T22:57:15.614Z,12.82
2022-12-19T22:59:43.033Z,17.45
2022-12-19T23:02:10.326Z,16.05
2022-12-19T23:04:37.518Z,16.55
2022-12-19T23:07:04.872Z,14.77
2022-12-19T23:09:31.936Z,16.27
2022-12-19T23:11:59.125Z,17.02
2022-12-19T23:14:26.524Z,18.52
2022-12-19T23:16:53.560Z,16.23
2022-12-19T23:19:20.652Z,20.37
2022-12-19T23:21:47.942Z,17.52
2022-12-19T23:24:15.125Z,10.50
2022-12-19T23:26:42.382Z,17.58
2022-12-19T23:29:14.098Z,18.92
2022-12-19T23:31:42.688Z,21.52
2022-12-19T23:34:10.612Z,20.10
2022-12-19T23:37:09.512Z,15.68
2022-12-19T23:39:25.428Z,16.17
2022-12-19T23:41:52.460Z,18.05
2022-12-19T23:44:19.633Z,15.00
2022-12-19T23:46:46.896Z,16.65
2022-12-19T23:49:14.254Z,16.85
2022-12-19T23:51:41.263Z,17.75
2022-12-19T23:54:11.556Z,13.82
2022-12-19T23:56:38.654Z,16.90
2022-12-19T23:59:05.674Z,18.25
